Time;durP1;ratioP1;P1;durP2;ratioP2;P2;SDS_P1;SDS_P2;PMS_P1;PMS_P2;Temp;Humidity;BMP_temperature;BMP_pressure;BME280_temperature;BME280_humidity;BME280_pressure;Samples;Min_cycle;Max_cycle;Signal;HPM_P1;HPM_P2
2024/03/05 00:01:02;;;;;;;32.23;19.23;;;11.20;99.90;;;;;;5072331;28;20182;-90
2024/03/05 00:03:28;;;;;;;36.77;22.93;;;10.40;99.90;;;;;;5083481;28;20431;-89
2024/03/05 00:05:57;;;;;;;31.83;19.45;;;11.40;99.90;;;;;;5091424;28;20442;-90
2024/03/05 00:08:22;;;;;;;32.65;19.85;;;11.10;99.90;;;;;;5075091;28;20401;-90
2024/03/05 00:10:48;;;;;;;27.80;19.03;;;;;;;;;;5075962;28;20186;-89
2024/03/05 00:13:14;;;;;;;31.70;20.63;;;9.90;99.90;;;;;;5078243;28;20194;-90
2024/03/05 00:15:40;;;;;;;33.73;20.13;;;;;;;;;;5085177;28;20474;-90
2024/03/05 00:18:06;;;;;;;26.95;17.83;;;9.70;99.90;;;;;;5082653;28;20186;-88
2024/03/05 00:20:32;;;;;;;30.90;20.67;;;9.90;99.90;;;;;;5076653;28;20190;-89
2024/03/05 00:22:58;;;;;;;30.15;19.92;;;10.40;99.90;;;;;;5078647;28;20471;-88
2024/03/05 00:25:24;;;;;;;26.42;17.52;;;9.40;99.90;;;;;;5073310;28;20625;-88
2024/03/05 00:27:50;;;;;;;31.17;19.35;;;10.60;99.90;;;;;;5076041;28;20201;-89
2024/03/05 00:30:18;;;;;;;32.10;19.37;;;11.50;99.90;;;;;;5077011;28;20202;-88
2024/03/05 00:32:44;;;;;;;31.92;19.58;;;9.70;99.90;;;;;;5077818;28;20501;-88
2024/03/05 00:35:10;;;;;;;31.60;18.00;;;9.90;99.90;;;;;;5086319;28;20245;-88
2024/03/05 00:37:37;;;;;;;31.98;19.00;;;11.10;99.90;;;;;;5071352;28;20178;-88
2024/03/05 00:40:08;;;;;;;33.92;19.10;;;10.00;99.90;;;;;;5074395;28;20281;-88
2024/03/05 00:42:34;;;;;;;31.33;21.10;;;9.90;99.90;;;;;;5078061;28;20187;-88
2024/03/05 00:45:00;;;;;;;31.20;20.77;;;9.70;99.90;;;;;;5076054;28;20647;-89
2024/03/05 00:47:25;;;;;;;32.03;18.90;;;11.00;99.90;;;;;;5078544;28;20181;-89
2024/03/05 00:49:51;;;;;;;29.73;19.30;;;;;;;;;;5078285;28;20191;-88
2024/03/05 00:52:17;;;;;;;30.02;19.25;;;;;;;;;;5072481;28;20244;-89
2024/03/05 00:54:45;;;;;;;32.40;19.58;;;9.60;99.90;;;;;;5075698;28;20210;-89
2024/03/05 00:57:11;;;;;;;32.10;19.00;;;10.60;99.90;;;;;;5074975;28;20609;-89
2024/03/05 00:59:37;;;;;;;28.02;18.45;;;9.50;99.90;;;;;;5075307;28;20178;-89
2024/03/05 01:02:03;;;;;;;28.17;20.08;;;;;;;;;;5077184;28;20181;-89
2024/03/05 01:04:29;;;;;;;30.35;18.70;;;9.70;99.90;;;;;;5077763;28;20190;-88
2024/03/05 01:06:56;;;;;;;29.58;18.70;;;;;;;;;;5080283;28;20203;-89
2024/03/05 01:09:24;;;;;;;38.35;18.20;;;9.60;99.90;;;;;;5075292;28;20595;-88
2024/03/05 01:11:53;;;;;;;31.80;19.38;;;10.00;99.90;;;;;;5073699;28;20189;-89
2024/03/05 01:14:20;;;;;;;28.02;18.13;;;10.90;99.90;;;;;;5075319;28;21410;-89
2024/03/05 01:16:46;;;;;;;28.75;18.08;;;9.90;99.90;;;;;;5080477;28;20203;-90
2024/03/05 01:19:14;;;;;;;27.15;18.40;;;10.20;99.90;;;;;;5078416;28;20191;-88
2024/03/05 01:21:41;;;;;;;24.98;16.25;;;9.60;99.90;;;;;;5073418;28;20265;-89
2024/03/05 01:24:10;;;;;;;25.80;16.73;;;9.40;99.90;;;;;;5077332;28;20217;-88
2024/03/05 01:26:39;;;;;;;29.38;17.70;;;11.50;99.90;;;;;;5080311;28;20206;-89
2024/03/05 01:29:07;;;;;;;27.83;17.83;;;12.20;99.90;;;;;;5079457;28;20190;-90
2024/03/05 01:31:36;;;;;;;27.90;17.67;;;9.50;99.90;;;;;;5072398;28;20298;-88
2024/03/05 01:34:03;;;;;;;28.83;19.08;;;9.70;99.90;;;;;;5080061;28;20216;-88
2024/03/05 01:36:29;;;;;;;29.63;19.45;;;9.40;99.90;;;;;;5081392;28;20228;-88
2024/03/05 01:38:55;;;;;;;29.73;19.13;;;9.40;99.90;;;;;;5082194;28;20659;-88
2024/03/05 01:41:22;;;;;;;29.90;18.73;;;10.50;99.90;;;;;;5082327;28;20202;-88
2024/03/05 01:43:48;;;;;;;29.33;18.08;;;10.70;99.90;;;;;;5080234;28;20424;-87
2024/03/05 01:46:15;;;;;;;27.97;19.00;;;10.40;99.90;;;;;;5093802;28;20255;-89
2024/03/05 01:48:44;;;;;;;30.90;18.42;;;11.40;99.90;;;;;;5096107;28;20250;-89
2024/03/05 01:51:16;;;;;;;29.38;20.38;;;10.60;99.90;;;;;;5093362;28;20205;-89
2024/03/05 01:53:43;;;;;;;27.95;18.55;;;10.80;99.90;;;;;;5093265;28;20220;-88
2024/03/05 01:56:11;;;;;;;30.80;19.67;;;9.80;99.90;;;;;;5088845;28;20233;-88
2024/03/05 01:58:39;;;;;;;30.15;18.42;;;8.80;99.90;;;;;;5079010;28;20185;-89
2024/03/05 02:01:06;;;;;;;29.75;18.20;;;8.50;99.90;;;;;;5074464;28;20202;-88
2024/03/05 02:03:37;;;;;;;27.38;17.85;;;11.50;99.90;;;;;;5076083;28;20186;-88
2024/03/05 02:06:05;;;;;;;29.90;18.23;;;9.70;99.90;;;;;;5073064;28;20318;-88
2024/03/05 02:08:31;;;;;;;32.08;16.83;;;10.00;99.90;;;;;;5075770;28;20181;-88
2024/03/05 02:10:57;;;;;;;26.87;17.00;;;;;;;;;;5076018;28;20650;-88
2024/03/05 02:13:25;;;;;;;26.80;16.63;;;9.80;99.90;;;;;;5072922;28;20186;-89
2024/03/05 02:15:50;;;;;;;29.80;19.02;;;9.70;99.90;;;;;;5071851;28;20238;-89
2024/03/05 02:18:16;;;;;;;31.40;18.63;;;10.30;99.90;;;;;;5078795;28;20590;-89
2024/03/05 02:20:42;;;;;;;34.00;18.60;;;;;;;;;;5072970;28;20270;-89
2024/03/05 02:23:07;;;;;;;28.73;18.35;;;9.80;99.90;;;;;;5071944;28;20179;-89
2024/03/05 02:25:34;;;;;;;23.70;16.77;;;;;;;;;;5075352;28;20289;-89
2024/03/05 02:28:01;;;;;;;31.55;19.70;;;9.90;99.90;;;;;;5077068;28;20196;-89
2024/03/05 02:30:29;;;;;;;27.55;18.10;;;9.40;99.90;;;;;;5077067;28;20295;-88
2024/03/05 02:32:57;;;;;;;25.33;18.63;;;10.50;99.90;;;;;;5077462;28;20177;-88
2024/03/05 02:35:23;;;;;;;30.17;19.02;;;8.30;99.90;;;;;;5076721;28;20268;-88
2024/03/05 02:37:49;;;;;;;30.40;20.05;;;10.10;99.90;;;;;;5077569;28;20564;-89
2024/03/05 02:40:16;;;;;;;29.20;17.73;;;10.60;99.90;;;;;;5074437;28;20188;-89
2024/03/05 02:42:43;;;;;;;35.33;20.00;;;10.90;99.90;;;;;;5078112;28;20191;-90
2024/03/05 02:45:10;;;;;;;35.30;19.65;;;9.70;99.90;;;;;;5076254;28;20201;-89
2024/03/05 02:47:39;;;;;;;35.75;20.40;;;9.70;99.90;;;;;;5073901;28;20506;-89
2024/03/05 02:50:07;;;;;;;32.67;19.58;;;9.50;99.90;;;;;;5075374;28;20966;-89
2024/03/05 02:52:33;;;;;;;33.30;19.65;;;9.30;99.90;;;;;;5073349;28;20194;-90
2024/03/05 02:54:59;;;;;;;29.30;19.90;;;;;;;;;;5075972;28;20285;-90
2024/03/05 02:57:25;;;;;;;33.85;20.40;;;9.40;99.90;;;;;;5079190;28;20206;-90
2024/03/05 02:59:51;;;;;;;30.30;18.40;;;;;;;;;;5073528;28;20240;-89
2024/03/05 03:02:20;;;;;;;31.65;19.33;;;9.40;99.90;;;;;;5076586;28;20418;-89
2024/03/05 03:04:46;;;;;;;26.02;18.30;;;10.70;99.90;;;;;;5076841;28;20192;-89
2024/03/05 03:07:12;;;;;;;30.02;18.40;;;10.50;99.90;;;;;;5074414;28;20209;-89
2024/03/05 03:09:38;;;;;;;31.03;18.97;;;;;;;;;;5076052;28;20220;-89
2024/03/05 03:12:05;;;;;;;30.67;18.80;;;9.30;99.90;;;;;;5071350;28;20186;-89
2024/03/05 03:14:30;;;;;;;29.15;18.88;;;9.30;99.90;;;;;;5070329;28;20281;-89
2024/03/05 03:16:57;;;;;;;35.37;18.73;;;;;;;;;;5073651;28;20215;-89
2024/03/05 03:19:22;;;;;;;31.10;19.05;;;9.40;99.90;;;;;;5074325;28;20443;-89
2024/03/05 03:21:49;;;;;;;36.30;19.80;;;;;;;;;;5073305;28;20193;-89
2024/03/05 03:24:17;;;;;;;32.72;18.30;;;9.40;99.90;;;;;;5075552;28;20265;-88
2024/03/05 03:26:43;;;;;;;28.98;18.80;;;9.30;99.90;;;;;;5074984;28;20197;-88
2024/03/05 03:29:11;;;;;;;27.00;18.90;;;;;;;;;;5073242;28;20186;-89
2024/03/05 03:31:47;;;;;;;29.75;17.10;;;9.30;99.90;;;;;;5073289;28;20612;-88
2024/03/05 03:34:16;;;;;;;29.05;19.38;;;11.20;99.90;;;;;;5068240;28;20225;-89
2024/03/05 03:36:42;;;;;;;31.05;19.50;;;9.60;99.90;;;;;;5073623;28;20272;-89
2024/03/05 03:39:11;;;;;;;30.30;18.65;;;11.70;99.90;;;;;;5076266;28;20712;-89
2024/03/05 03:41:39;;;;;;;32.92;20.38;;;11.50;99.90;;;;;;5073698;28;20198;-89
2024/03/05 03:44:06;;;;;;;31.25;17.70;;;10.10;99.90;;;;;;5069767;28;20223;-89
2024/03/05 03:46:32;;;;;;;33.50;20.38;;;;;;;;;;5077556;28;20201;-89
2024/03/05 03:48:58;;;;;;;31.52;20.02;;;;;;;;;;5071573;28;20212;-89
2024/03/05 03:51:24;;;;;;;33.60;20.17;;;9.40;99.90;;;;;;5070478;28;20650;-88
2024/03/05 03:53:50;;;;;;;31.30;19.20;;;;;;;;;;5071163;28;20460;-89
2024/03/05 03:56:17;;;;;;;35.63;22.38;;;9.30;99.90;;;;;;5071979;28;20289;-89
2024/03/05 03:58:43;;;;;;;31.35;19.80;;;;;;;;;;5067700;28;20281;-89
2024/03/05 04:01:08;;;;;;;30.85;18.63;;;9.10;99.90;;;;;;5066678;28;20268;-89
2024/03/05 04:03:34;;;;;;;31.47;20.30;;;;;;;;;;5070063;28;20201;-87
2024/03/05 04:06:00;;;;;;;29.30;18.63;;;9.30;99.90;;;;;;5070469;28;20223;-88
2024/03/05 04:08:26;;;;;;;29.13;18.40;;;;;;;;;;5070232;28;20189;-88
2024/03/05 04:10:51;;;;;;;38.22;20.33;;;9.30;99.90;;;;;;5069776;28;20272;-88
2024/03/05 04:13:17;;;;;;;33.23;19.77;;;;;;;;;;5069273;28;20297;-88
2024/03/05 04:15:43;;;;;;;35.80;19.30;;;9.10;99.90;;;;;;5073248;28;20217;-88
2024/03/05 04:18:09;;;;;;;34.57;20.53;;;;;;;;;;5071571;28;20421;-89
2024/03/05 04:20:34;;;;;;;37.33;20.30;;;9.20;99.90;;;;;;5073449;28;20218;-89
2024/03/05 04:23:00;;;;;;;29.50;18.83;;;;;;;;;;5082082;28;20450;-89
2024/03/05 04:25:30;;;;;;;28.90;18.65;;;9.20;99.90;;;;;;5073079;28;20232;-89
2024/03/05 04:27:56;;;;;;;33.90;20.38;;;9.10;99.90;;;;;;5076899;28;20181;-89
2024/03/05 04:30:23;;;;;;;30.30;19.03;;;9.70;99.90;;;;;;5071747;28;20237;-89
2024/03/05 04:32:53;;;;;;;33.05;18.65;;;7.90;99.90;;;;;;5075508;28;20228;-89
2024/03/05 04:35:19;;;;;;;32.50;19.73;;;8.80;99.90;;;;;;5073792;28;20223;-89
2024/03/05 04:37:45;;;;;;;31.23;19.73;;;;;;;;;;5073644;28;20186;-89
2024/03/05 04:40:12;;;;;;;37.05;20.55;;;9.20;99.90;;;;;;5069309;28;20177;-89
2024/03/05 04:42:39;;;;;;;34.97;19.50;;;9.40;99.90;;;;;;5073606;28;20200;-90
2024/03/05 04:45:06;;;;;;;30.77;18.52;;;;;;;;;;5072983;28;20207;-90
2024/03/05 04:47:32;;;;;;;28.90;19.30;;;9.20;99.90;;;;;;5084577;28;20193;-89
2024/03/05 04:49:58;;;;;;;32.53;18.80;;;8.60;99.90;;;;;;5073413;28;20190;-89
2024/03/05 04:52:24;;;;;;;32.87;20.27;;;9.80;99.90;;;;;;5073284;28;20200;-89
2024/03/05 04:54:50;;;;;;;30.90;18.70;;;;;;;;;;5072993;28;20316;-89
2024/03/05 04:57:15;;;;;;;36.83;20.10;;;9.20;99.90;;;;;;5083378;28;20201;-89
2024/03/05 04:59:41;;;;;;;26.73;18.17;;;;;;;;;;5084957;28;20260;-87
2024/03/05 05:02:07;;;;;;;35.40;20.25;;;9.40;99.90;;;;;;5073336;28;20181;-89
2024/03/05 05:04:37;;;;;;;29.33;18.50;;;9.40;99.90;;;;;;5075255;28;20188;-89
2024/03/05 05:10:13;;;;;;;31.23;19.58;;;9.60;99.90;;;;;;5077157;28;20201;-88
2024/03/05 05:12:40;;;;;;;35.97;22.00;;;9.30;99.90;;;;;;5076622;28;20177;-89
2024/03/05 05:15:12;;;;;;;30.98;20.02;;;9.40;99.90;;;;;;5077090;28;20205;-88
2024/03/05 05:17:41;;;;;;;32.53;19.88;;;9.70;99.90;;;;;;5075767;28;20181;-90
2024/03/05 05:20:08;;;;;;;32.08;19.02;;;10.70;99.90;;;;;;5074761;28;20189;-89
2024/03/05 05:22:37;;;;;;;32.03;21.40;;;9.40;99.90;;;;;;5074158;28;20203;-89
2024/03/05 05:25:03;;;;;;;38.72;22.52;;;;;;;;;;5077094;28;20189;-89
2024/03/05 05:27:29;;;;;;;35.35;20.83;;;9.10;99.90;;;;;;5075079;28;20189;-89
2024/03/05 05:29:55;;;;;;;31.73;21.00;;;;;;;;;;5074163;28;20217;-89
2024/03/05 05:32:21;;;;;;;36.35;20.70;;;9.00;99.90;;;;;;5075482;28;20205;-89
2024/03/05 05:34:46;;;;;;;34.97;20.83;;;;;;;;;;5074029;28;20216;-88
2024/03/05 05:37:12;;;;;;;35.67;21.85;;;;;;;;;;5072662;28;20208;-88
2024/03/05 05:39:38;;;;;;;38.97;21.85;;;9.20;99.90;;;;;;5065481;28;20183;-88
2024/03/05 05:42:04;;;;;;;37.17;23.43;;;9.90;99.90;;;;;;5067319;28;20234;-89
2024/03/05 05:44:30;;;;;;;40.47;22.98;;;9.30;99.90;;;;;;5066880;28;20705;-88
2024/03/05 05:46:56;;;;;;;36.43;21.87;;;10.50;99.90;;;;;;5066763;28;20293;-88
2024/03/05 05:49:21;;;;;;;37.47;23.20;;;10.30;99.90;;;;;;5074136;28;21521;-89
2024/03/05 05:51:47;;;;;;;35.90;22.33;;;9.00;99.90;;;;;;5079140;28;20459;-89
2024/03/05 05:54:13;;;;;;;34.38;21.17;;;8.00;99.90;;;;;;5081626;28;20210;-89
2024/03/05 05:56:39;;;;;;;41.83;22.10;;;;;;;;;;5075463;28;20202;-89
2024/03/05 05:59:08;;;;;;;33.92;20.65;;;8.80;99.90;;;;;;5072029;28;20206;-88
2024/03/05 06:01:34;;;;;;;36.67;21.35;;;9.30;99.90;;;;;;5077411;28;20185;-88
2024/03/05 06:04:00;;;;;;;36.58;20.85;;;7.80;99.90;;;;;;5070802;28;20646;-89
2024/03/05 06:06:25;;;;;;;39.15;23.23;;;9.80;99.90;;;;;;5072614;28;20197;-89
2024/03/05 06:08:52;;;;;;;36.33;21.43;;;;;;;;;;5073316;28;20522;-89
2024/03/05 06:11:17;;;;;;;31.05;19.50;;;8.90;99.90;;;;;;5071217;28;20721;-89
2024/03/05 06:13:44;;;;;;;34.70;20.40;;;9.20;99.90;;;;;;5067275;28;20183;-89
2024/03/05 06:16:09;;;;;;;39.67;21.05;;;8.60;99.90;;;;;;5070523;28;20213;-89
2024/03/05 06:18:37;;;;;;;35.65;19.60;;;9.20;99.90;;;;;;5080161;28;20272;-89
2024/03/05 06:21:05;;;;;;;39.25;21.80;;;9.20;99.90;;;;;;5090386;28;20221;-89
2024/03/05 06:23:30;;;;;;;35.63;21.73;;;8.20;99.90;;;;;;5077016;28;20245;-88
2024/03/05 06:25:56;;;;;;;36.10;20.20;;;8.60;99.90;;;;;;5079108;28;20259;-89
2024/03/05 06:28:22;;;;;;;35.17;22.00;;;11.30;99.90;;;;;;5085262;28;20197;-88
2024/03/05 06:30:54;;;;;;;32.57;20.57;;;9.30;99.90;;;;;;5082624;28;20253;-89
2024/03/05 06:33:19;;;;;;;35.47;21.00;;;9.30;99.90;;;;;;5084185;28;20419;-91
2024/03/05 06:35:48;;;;;;;36.47;20.25;;;9.40;99.90;;;;;;5203533;22;20242;-91
2024/03/05 06:38:14;;;;;;;37.03;20.75;;;10.20;99.90;;;;;;5093921;28;20203;-90
2024/03/05 06:41:16;;;;;;;;;;;;;;;;;;;;;
2024/03/05 06:43:47;;;;;;;33.15;20.92;;;9.50;99.90;;;;;;5084457;28;20202;-90
2024/03/05 06:46:13;;;;;;;33.05;21.20;;;11.40;99.90;;;;;;5090956;28;20208;-90
2024/03/05 06:49:00;;;;;;;39.00;21.30;;;11.50;99.90;;;;;;5093000;28;20202;-91
2024/03/05 06:57:18;;;;;;;35.72;21.92;;;9.20;99.90;;;;;;5092352;28;20244;-91
2024/03/05 07:10:21;;;;;;;38.33;20.80;;;9.60;99.90;;;;;;5095428;28;20252;-91
2024/03/05 07:12:51;;;;;;;32.45;18.77;;;9.90;99.90;;;;;;5081491;28;20196;-92
2024/03/05 07:15:23;;;;;;;33.80;21.40;;;9.80;99.90;;;;;;5086010;28;20222;-93
2024/03/05 07:17:53;;;;;;;38.30;22.50;;;9.70;99.90;;;;;;5076646;28;20170;-91
2024/03/05 07:20:22;;;;;;;36.90;20.17;;;9.80;99.90;;;;;;5365040;22;20304;-90
2024/03/05 07:35:58;;;;;;;31.63;21.30;;;;;;;;;;5074852;28;20285;-85
2024/03/05 07:38:24;;;;;;;37.83;20.63;;;9.80;99.90;;;;;;5039469;28;20230;-85
2024/03/05 07:40:49;;;;;;;33.10;19.90;;;9.50;99.90;;;;;;5040103;28;20460;-86
2024/03/05 07:43:15;;;;;;;38.53;20.80;;;9.60;99.90;;;;;;5043847;28;20242;-84
2024/03/05 07:45:42;;;;;;;37.40;21.80;;;9.80;99.90;;;;;;5036873;28;20210;-84
2024/03/05 07:48:07;;;;;;;36.20;21.45;;;9.30;99.90;;;;;;5047212;28;20442;-87
2024/03/05 07:50:33;;;;;;;34.97;21.43;;;9.50;99.90;;;;;;5036958;28;20187;-87
2024/03/05 07:52:58;;;;;;;35.23;21.70;;;9.90;99.90;;;;;;5045136;28;20188;-89
2024/03/05 07:55:26;;;;;;;34.20;20.63;;;9.60;99.90;;;;;;5044333;28;20390;-89
2024/03/05 07:57:56;;;;;;;35.00;21.15;;;9.90;99.90;;;;;;5054038;28;20183;-90
2024/03/05 08:00:23;;;;;;;37.70;21.88;;;9.60;99.90;;;;;;5054369;28;20197;-90
2024/03/05 08:02:57;;;;;;;37.35;20.17;;;9.30;99.90;;;;;;5052616;28;20213;-90
2024/03/05 08:09:16;;;;;;;32.72;19.83;;;10.20;99.90;;;;;;5069275;28;20202;-92
2024/03/05 08:27:59;;;;;;;32.92;20.60;;;9.60;99.90;;;;;;5886258;22;20447;-92
2024/03/05 08:30:55;;;;;;;30.05;18.60;;;12.60;99.90;;;;;;5059996;28;20193;-91
2024/03/05 08:33:20;;;;;;;33.30;20.40;;;12.50;99.90;;;;;;5054060;28;20214;-90
2024/03/05 08:35:46;;;;;;;26.45;17.10;;;10.90;99.90;;;;;;5048668;28;20730;-89
2024/03/05 08:38:13;;;;;;;27.63;18.27;;;11.90;99.90;;;;;;5049219;28;20183;-90
2024/03/05 08:40:38;;;;;;;32.67;18.45;;;11.30;99.90;;;;;;5056015;28;20186;-90
2024/03/05 08:43:06;;;;;;;27.93;17.50;;;11.20;99.90;;;;;;5059301;28;20180;-91
2024/03/05 08:45:32;;;;;;;27.48;17.45;;;9.70;99.90;;;;;;5052209;28;20207;-91
2024/03/05 08:47:58;;;;;;;27.03;18.10;;;;;;;;;;5056540;28;20176;-91
2024/03/05 08:50:28;;;;;;;30.53;18.00;;;10.70;99.90;;;;;;5058805;28;20189;-90
2024/03/05 08:52:53;;;;;;;32.55;18.42;;;10.60;99.90;;;;;;5215960;22;20516;-90
2024/03/05 08:55:20;;;;;;;29.57;18.57;;;;;;;;;;5060691;28;20218;-90
2024/03/05 08:57:45;;;;;;;28.42;18.35;;;10.60;99.90;;;;;;5077006;28;20164;-89
2024/03/05 09:00:20;;;;;;;29.67;17.50;;;10.10;99.90;;;;;;5076593;28;20194;-90
2024/03/05 09:02:45;;;;;;;30.55;18.13;;;10.50;99.90;;;;;;5050240;28;20173;-91
2024/03/05 09:20:51;;;;;;;23.88;14.55;;;11.20;99.90;;;;;;4943570;28;20246;-92
2024/03/05 09:23:19;;;;;;;16.52;12.05;;;10.70;99.90;;;;;;4939936;29;20746;-92
2024/03/05 09:25:45;;;;;;;15.68;10.82;;;10.00;99.90;;;;;;5050302;28;20225;-92
2024/03/05 09:28:52;;;;;;;;;;;;;;;;;;;;;
2024/03/05 09:35:37;;;;;;;13.70;9.80;;;9.80;99.90;;;;;;5005777;28;20711;-91
2024/03/05 10:05:28;;;;;;;10.38;7.00;;;;;;;;;;5064486;28;20243;-89
2024/03/05 10:07:54;;;;;;;6.13;5.43;;;10.00;99.90;;;;;;5062536;28;20189;-90
2024/03/05 10:10:21;;;;;;;8.07;5.50;;;10.20;99.90;;;;;;5063923;28;20202;-90
2024/03/05 10:12:49;;;;;;;5.68;5.03;;;10.90;99.90;;;;;;5056330;28;20195;-90
2024/03/05 10:15:26;;;;;;;5.38;4.45;;;10.10;99.90;;;;;;5066823;28;20218;-89
2024/03/05 10:17:55;;;;;;;7.65;5.13;;;10.20;99.90;;;;;;5071921;28;20178;-88
2024/03/05 10:20:32;;;;;;;6.40;5.30;;;11.50;99.90;;;;;;5069635;28;20248;-89
2024/03/05 10:23:00;;;;;;;5.45;4.93;;;10.10;99.90;;;;;;5068002;28;20180;-90
2024/03/05 10:28:02;;;;;;;7.95;4.60;;;10.70;99.90;;;;;;5312988;22;20230;-91
2024/03/05 10:34:06;;;;;;;5.78;5.10;;;9.90;99.90;;;;;;5042193;28;20179;-92
2024/03/05 10:36:48;;;;;;;5.00;4.32;;;10.60;99.90;;;;;;5012591;28;20676;-89
2024/03/05 10:39:14;;;;;;;7.85;5.10;;;11.20;99.90;;;;;;5025678;28;20228;-90
2024/03/05 10:41:40;;;;;;;5.37;4.03;;;9.60;99.90;;;;;;5029766;28;20188;-89
2024/03/05 10:44:07;;;;;;;6.80;4.13;;;9.80;99.90;;;;;;5052769;28;20211;-91
2024/03/05 10:46:35;;;;;;;4.80;4.30;;;10.40;99.90;;;;;;5028819;28;20208;-91
2024/03/05 10:49:13;;;;;;;4.63;4.00;;;10.00;99.90;;;;;;5037584;28;20171;-91
2024/03/05 10:51:53;;;;;;;4.90;4.32;;;10.40;99.90;;;;;;5109941;22;20231;-86
2024/03/05 10:54:21;;;;;;;6.35;4.45;;;10.80;99.90;;;;;;5069889;28;20270;-87
2024/03/05 10:56:49;;;;;;;6.25;4.25;;;10.60;99.90;;;;;;5071835;28;20195;-86
2024/03/05 11:01:42;;;;;;;7.03;4.80;;;10.80;99.90;;;;;;5062322;28;20252;-86
2024/03/05 11:04:30;;;;;;;5.00;4.50;;;10.80;99.90;;;;;;5039196;28;20188;-87
2024/03/05 11:06:57;;;;;;;5.97;4.70;;;10.50;99.90;;;;;;5069323;28;20306;-85
2024/03/05 11:09:24;;;;;;;5.75;5.13;;;10.90;99.90;;;;;;5056236;28;20191;-85
2024/03/05 11:11:56;;;;;;;5.40;4.88;;;11.30;99.90;;;;;;5039442;28;20245;-85
2024/03/05 11:14:24;;;;;;;6.13;5.30;;;10.70;99.90;;;;;;5052604;28;20176;-86
2024/03/05 11:17:09;;;;;;;5.43;4.93;;;11.10;99.90;;;;;;5062106;28;20692;-85
2024/03/05 11:19:45;;;;;;;7.78;6.00;;;10.60;99.90;;;;;;5053269;28;20200;-85
2024/03/05 11:22:24;;;;;;;6.28;5.10;;;10.80;99.90;;;;;;5056685;28;20181;-85
2024/03/05 11:24:55;;;;;;;6.70;5.80;;;10.30;99.90;;;;;;5055681;28;20182;-86
2024/03/05 11:27:25;;;;;;;6.57;5.90;;;10.50;99.90;;;;;;5057102;28;20331;-87
2024/03/05 11:30:16;;;;;;;6.47;5.75;;;10.50;99.90;;;;;;5052452;28;20199;-88
2024/03/05 11:32:43;;;;;;;5.47;4.93;;;10.50;99.90;;;;;;5053876;28;20193;-85
2024/03/05 11:35:11;;;;;;;6.55;5.78;;;10.60;99.90;;;;;;5054640;28;20659;-86
2024/03/05 11:37:53;;;;;;;6.80;5.55;;;10.60;99.90;;;;;;5049727;28;20187;-86
2024/03/05 11:40:29;;;;;;;6.93;5.15;;;10.60;99.90;;;;;;5052000;28;20630;-86
2024/03/05 11:42:55;;;;;;;5.55;4.13;;;10.60;99.90;;;;;;5068399;28;20183;-85
2024/03/05 11:45:49;;;;;;;5.40;4.50;;;11.10;99.90;;;;;;5050122;28;20207;-88
2024/03/05 11:48:22;;;;;;;6.15;4.80;;;10.60;99.90;;;;;;5048034;28;20182;-88
2024/03/05 11:50:52;;;;;;;5.25;4.75;;;11.10;99.90;;;;;;5055872;28;20199;-88
2024/03/05 11:53:17;;;;;;;4.43;4.00;;;10.50;99.90;;;;;;5052197;28;20274;-88
2024/03/05 11:55:43;;;;;;;5.37;4.30;;;10.60;99.90;;;;;;5055599;28;20333;-87
2024/03/05 11:58:10;;;;;;;4.20;3.80;;;10.60;99.90;;;;;;5057226;28;20242;-87
2024/03/05 12:00:38;;;;;;;4.75;4.35;;;10.50;99.90;;;;;;5049728;28;20183;-88
2024/03/05 12:03:04;;;;;;;5.63;4.20;;;10.30;99.90;;;;;;5055892;28;20214;-88
2024/03/05 12:05:30;;;;;;;4.57;4.07;;;10.40;99.90;;;;;;5053038;28;20207;-87
2024/03/05 12:08:06;;;;;;;5.55;3.92;;;11.70;99.90;;;;;;5056764;28;20194;-87
2024/03/05 12:10:35;;;;;;;5.75;5.15;;;10.30;99.90;;;;;;5059365;28;20185;-89
2024/03/05 12:13:05;;;;;;;4.22;3.83;;;10.30;99.90;;;;;;5038621;28;20277;-87
2024/03/05 12:15:35;;;;;;;9.13;8.20;;;10.20;99.90;;;;;;5050866;28;20280;-89
2024/03/05 12:18:10;;;;;;;4.20;2.70;;;10.30;99.90;;;;;;5051798;28;20655;-89
2024/03/05 12:20:37;;;;;;;4.85;2.95;;;10.10;99.90;;;;;;5051486;28;20254;-89
2024/03/05 12:23:03;;;;;;;2.78;2.58;;;10.30;99.90;;;;;;5050108;28;20212;-88
2024/03/05 12:25:32;;;;;;;3.47;3.17;;;10.20;99.90;;;;;;5051963;28;20203;-89
2024/03/05 12:28:05;;;;;;;3.45;2.83;;;10.50;99.90;;;;;;5050588;28;20188;-88
2024/03/05 12:30:33;;;;;;;3.00;2.70;;;10.60;99.90;;;;;;5037569;28;20593;-89
2024/03/05 12:32:59;;;;;;;3.42;2.78;;;11.00;99.90;;;;;;5051739;28;20225;-91
2024/03/05 12:35:25;;;;;;;3.57;3.27;;;10.10;99.90;;;;;;5067482;28;20238;-87
2024/03/05 12:37:51;;;;;;;4.70;3.47;;;9.90;99.90;;;;;;5076411;28;20453;-87
2024/03/05 12:40:18;;;;;;;3.53;2.90;;;11.70;99.90;;;;;;5045927;28;20473;-87
2024/03/05 12:42:48;;;;;;;4.78;2.67;;;10.50;99.90;;;;;;5055993;28;20507;-89
2024/03/05 12:45:21;;;;;;;2.80;2.60;;;10.50;99.90;;;;;;5057569;28;20259;-89
2024/03/05 12:47:56;;;;;;;3.42;2.70;;;10.80;99.90;;;;;;5057362;28;20212;-87
2024/03/05 12:50:22;;;;;;;3.53;2.67;;;10.90;99.90;;;;;;5055039;28;20252;-89
2024/03/05 12:52:48;;;;;;;2.60;2.40;;;11.10;99.90;;;;;;5056885;28;20189;-88
2024/03/05 12:55:14;;;;;;;3.30;3.00;;;11.20;99.90;;;;;;5074197;28;20501;-87
2024/03/05 12:57:41;;;;;;;2.60;2.40;;;11.20;99.90;;;;;;5072083;28;20191;-87
2024/03/05 13:00:12;;;;;;;2.70;2.50;;;11.60;99.90;;;;;;5041566;28;20226;-87
2024/03/05 13:02:38;;;;;;;3.78;2.58;;;11.50;99.90;;;;;;5052722;28;20570;-87
2024/03/05 13:05:04;;;;;;;2.77;2.57;;;11.30;99.90;;;;;;5052398;28;20196;-88
2024/03/05 13:07:30;;;;;;;2.30;2.20;;;11.40;99.90;;;;;;5041593;28;20536;-88
2024/03/05 13:09:59;;;;;;;2.58;2.38;;;11.50;99.90;;;;;;5055875;28;20186;-89
2024/03/05 13:12:24;;;;;;;2.92;2.70;;;11.30;99.90;;;;;;5036207;28;20189;-86
2024/03/05 13:14:50;;;;;;;2.60;2.40;;;11.60;99.90;;;;;;5055053;28;20273;-88
2024/03/05 13:17:16;;;;;;;4.97;4.23;;;11.50;99.90;;;;;;5050140;28;20213;-88
2024/03/05 13:19:45;;;;;;;2.40;2.20;;;11.30;99.90;;;;;;5055132;28;20435;-87
2024/03/05 13:22:10;;;;;;;2.60;2.40;;;13.00;99.90;;;;;;5038394;28;20192;-88
2024/03/05 13:24:37;;;;;;;2.50;1.67;;;11.90;99.90;;;;;;5053853;28;20188;-88
2024/03/05 13:27:04;;;;;;;2.65;2.42;;;11.90;99.90;;;;;;5037620;28;20227;-86
2024/03/05 13:29:29;;;;;;;1.80;1.70;;;12.00;99.90;;;;;;5056118;28;20181;-88
2024/03/05 13:31:55;;;;;;;1.40;1.30;;;11.90;99.90;;;;;;5055274;28;20834;-89
2024/03/05 13:34:22;;;;;;;1.30;1.20;;;11.90;99.90;;;;;;5047449;28;20387;-89
2024/03/05 13:36:48;;;;;;;1.75;1.40;;;11.90;99.90;;;;;;5055058;28;20690;-88
2024/03/05 13:39:18;;;;;;;2.15;1.52;;;12.00;99.90;;;;;;5054501;28;20201;-88
2024/03/05 13:41:44;;;;;;;1.58;1.40;;;12.00;99.90;;;;;;5053559;28;20185;-88
2024/03/05 13:44:10;;;;;;;1.55;1.20;;;12.00;99.90;;;;;;5055459;28;20187;-88
2024/03/05 13:46:37;;;;;;;1.45;1.35;;;11.90;99.90;;;;;;5067468;28;20201;-89
2024/03/05 13:49:07;;;;;;;1.70;1.50;;;12.00;99.90;;;;;;5070119;28;20178;-88
2024/03/05 13:51:32;;;;;;;2.03;1.40;;;11.80;99.90;;;;;;5064670;28;20210;-89
2024/03/05 13:54:02;;;;;;;1.90;1.30;;;11.80;99.90;;;;;;5056828;28;20231;-89
2024/03/05 13:56:30;;;;;;;1.55;1.45;;;12.00;99.90;;;;;;5055771;28;20225;-88
2024/03/05 13:58:57;;;;;;;3.10;1.70;;;11.70;99.90;;;;;;5069469;28;20189;-89
2024/03/05 14:01:24;;;;;;;1.80;1.38;;;11.70;99.90;;;;;;5060765;28;20196;-89
2024/03/05 14:03:49;;;;;;;1.75;1.40;;;11.20;99.90;;;;;;5073058;28;20196;-88
2024/03/05 14:06:16;;;;;;;1.37;1.27;;;11.30;99.90;;;;;;5072069;28;20284;-88
2024/03/05 14:08:43;;;;;;;1.98;1.33;;;11.60;99.90;;;;;;5069171;28;20182;-85
2024/03/05 14:11:08;;;;;;;1.20;1.10;;;11.70;99.90;;;;;;5058256;28;21058;-85
2024/03/05 14:13:39;;;;;;;1.83;1.73;;;11.80;99.90;;;;;;5058052;28;20219;-86
2024/03/05 14:16:06;;;;;;;1.85;1.75;;;11.50;99.90;;;;;;5048400;28;20248;-87
2024/03/05 14:18:33;;;;;;;2.15;1.95;;;11.20;99.90;;;;;;5072070;28;20184;-86
2024/03/05 14:20:59;;;;;;;1.90;1.80;;;11.70;99.90;;;;;;5058222;28;20197;-86
2024/03/05 14:23:24;;;;;;;2.10;1.87;;;12.00;99.90;;;;;;5057114;28;20176;-86
2024/03/05 14:25:50;;;;;;;2.20;2.00;;;11.90;99.90;;;;;;5055815;28;20649;-87
2024/03/05 14:28:17;;;;;;;3.95;3.55;;;11.80;99.90;;;;;;5057035;28;20189;-86
2024/03/05 14:30:43;;;;;;;1.83;1.73;;;12.00;99.90;;;;;;5055272;28;20185;-87
2024/03/05 14:33:10;;;;;;;2.23;2.00;;;12.30;99.90;;;;;;5059510;28;20670;-87
2024/03/05 14:35:36;;;;;;;2.38;2.17;;;12.20;99.90;;;;;;5060215;28;20475;-88
2024/03/05 14:38:02;;;;;;;2.60;1.80;;;12.20;99.90;;;;;;5076061;28;20165;-87
2024/03/05 14:40:29;;;;;;;6.90;6.28;;;11.70;99.90;;;;;;5075438;28;20181;-87
2024/03/05 14:42:55;;;;;;;1.70;1.60;;;11.90;99.90;;;;;;5075251;28;20207;-87
2024/03/05 14:45:20;;;;;;;2.40;2.20;;;12.30;99.90;;;;;;5064301;28;20299;-87